PWSweather.com
Personal Weather Stations
Station Observations
PENICUIKWS
PenicuikGB

PenicuikGB

Lat: 55.830932, Lon: -3.224533000000065

Elevation: 166

Station Type: Fine Offset

http://weather.penicuik.org

High Low Average
Temperature 41.2°F5.1°C 36.3°F2.4°C 39.3°F4.1°C
Dew Point 39.3°F4.1°C 34.0°F1.1°C 37.6°F3.1°C
Winds 3.1 mph 5.0 kmh Calm Calm 1.0 mph ENE1.6 kmh ENE
Wind Gusts 5.4 mph8.7 kmh -- 2.0 mph3.2 kmh
Humidity 95% 89% 93%
Pressure 29.28 in991.5 mb 29.10 in985.4 mb -
Precipitation 0.19 in4.8 mm - -
Hour Temp Dew Point Humidity Winds Wind Gusts Pressure Precip Precip Rate Daily Precip Total
12:00 AM 41.0°F5.0°C 38.0°F3.3°C 89% 2.3 mph SSW3.7 kmh SSW 5.4 mph8.7 kmh 29.27 in991.2 mb 0.00 in0.0 mm 0.00 in0.0 mm 0.00 in0.0 mm
12:15 AM 41.2°F5.1°C 38.2°F3.4°C 89% 2.6 mph S4.2 kmh S 4.5 mph7.2 kmh 29.27 in991.2 mb 0.00 in0.0 mm 0.00 in0.0 mm 0.00 in0.0 mm
12:30 AM 40.1°F4.5°C 37.4°F3.0°C 90% 1.1 mph NW1.8 kmh NW 2.2 mph3.5 kmh 29.27 in991.2 mb 0.00 in0.0 mm 0.00 in0.0 mm 0.00 in0.0 mm
12:45 AM 40.1°F4.5°C 37.4°F3.0°C 90% 1.2 mph SW1.9 kmh SW 3.8 mph6.1 kmh 29.27 in991.2 mb 0.00 in0.0 mm 0.00 in0.0 mm 0.00 in0.0 mm
01:00 AM 40.1°F4.5°C 37.4°F3.0°C 90% 1.4 mph WSW2.3 kmh WSW 2.2 mph3.5 kmh 29.27 in991.2 mb 0.00 in0.0 mm 0.00 in0.0 mm 0.00 in0.0 mm
01:30 AM 40.1°F4.5°C 37.4°F3.0°C 90% 1.0 mph W1.6 kmh W 1.6 mph2.6 kmh 29.28 in991.5 mb 0.00 in0.0 mm 0.00 in0.0 mm 0.00 in0.0 mm
01:45 AM 40.1°F4.5°C 37.7°F3.2°C 91% 1.0 mph W1.6 kmh W 2.2 mph3.5 kmh 29.28 in991.5 mb 0.00 in0.0 mm 0.00 in0.0 mm 0.00 in0.0 mm
02:00 AM 40.1°F4.5°C 37.7°F3.2°C 91% 0.8 mph W1.3 kmh W 1.6 mph2.6 kmh 29.28 in991.5 mb 0.00 in0.0 mm 0.00 in0.0 mm 0.00 in0.0 mm
02:15 AM 40.3°F4.6°C 37.9°F3.3°C 91% 0.5 mph WSW0.8 kmh WSW 0.7 mph1.1 kmh 29.28 in991.5 mb 0.00 in0.0 mm 0.00 in0.0 mm 0.00 in0.0 mm
02:45 AM 40.1°F4.5°C 37.7°F3.2°C 91% 0.8 mph ENE1.3 kmh ENE 2.2 mph3.5 kmh 29.26 in990.9 mb 0.00 in0.0 mm 0.00 in0.0 mm 0.00 in0.0 mm
03:00 AM 40.1°F4.5°C 38.0°F3.3°C 92% 0.2 mph S0.3 kmh S 1.6 mph2.6 kmh 29.27 in991.2 mb 0.00 in0.0 mm 0.00 in0.0 mm 0.00 in0.0 mm
03:15 AM 40.1°F4.5°C 38.0°F3.3°C 92% 1.2 mph SW1.9 kmh SW 2.2 mph3.5 kmh 29.27 in991.2 mb 0.00 in0.0 mm 0.00 in0.0 mm 0.00 in0.0 mm
03:30 AM 40.1°F4.5°C 38.0°F3.3°C 92% 0.6 mph NNW1.0 kmh NNW 3.1 mph5.0 kmh 29.28 in991.5 mb 0.00 in0.0 mm 0.00 in0.0 mm 0.00 in0.0 mm
03:45 AM 40.1°F4.5°C 38.0°F3.3°C 92% 0.8 mph NW1.3 kmh NW 2.2 mph3.5 kmh 29.27 in991.2 mb 0.00 in0.0 mm 0.00 in0.0 mm 0.00 in0.0 mm
04:00 AM 40.1°F4.5°C 38.0°F3.3°C 92% 0.2 mph N0.3 kmh N 1.6 mph2.6 kmh 29.27 in991.2 mb 0.00 in0.0 mm 0.00 in0.0 mm 0.00 in0.0 mm
04:30 AM 39.4°F4.1°C 37.3°F2.9°C 92% Calm Calm -- 29.24 in990.2 mb 0.00 in0.0 mm 0.00 in0.0 mm 0.00 in0.0 mm
04:45 AM 39.4°F4.1°C 37.3°F2.9°C 92% Calm Calm -- 29.25 in990.5 mb 0.00 in0.0 mm 0.00 in0.0 mm 0.00 in0.0 mm
05:00 AM 39.4°F4.1°C 37.3°F2.9°C 92% Calm Calm -- 29.24 in990.2 mb 0.00 in0.0 mm 0.00 in0.0 mm 0.00 in0.0 mm
05:15 AM 39.4°F4.1°C 37.3°F2.9°C 92% 0.1 mph NNW0.2 kmh NNW 0.7 mph1.1 kmh 29.25 in990.5 mb 0.00 in0.0 mm 0.00 in0.0 mm 0.00 in0.0 mm
05:30 AM 39.4°F4.1°C 37.5°F3.1°C 93% Calm Calm -- 29.23 in989.8 mb 0.00 in0.0 mm 0.00 in0.0 mm 0.00 in0.0 mm
05:45 AM 39.4°F4.1°C 37.5°F3.1°C 93% 0.8 mph N1.3 kmh N 1.6 mph2.6 kmh 29.22 in989.5 mb 0.00 in0.0 mm 0.00 in0.0 mm 0.00 in0.0 mm
06:00 AM 39.4°F4.1°C 37.5°F3.1°C 93% 0.6 mph N1.0 kmh N 1.6 mph2.6 kmh 29.21 in989.2 mb 0.00 in0.0 mm 0.00 in0.0 mm 0.00 in0.0 mm
06:30 AM 39.4°F4.1°C 37.5°F3.1°C 93% 0.3 mph N0.5 kmh N 1.6 mph2.6 kmh 29.21 in989.2 mb 0.00 in0.0 mm 0.00 in0.0 mm 0.00 in0.0 mm
06:45 AM 39.4°F4.1°C 37.5°F3.1°C 93% 0.5 mph N0.8 kmh N 1.6 mph2.6 kmh 29.20 in988.8 mb 0.00 in0.0 mm 0.00 in0.0 mm 0.00 in0.0 mm
07:00 AM 39.4°F4.1°C 37.5°F3.1°C 93% 0.9 mph N1.4 kmh N 1.6 mph2.6 kmh 29.20 in988.8 mb 0.00 in0.0 mm 0.00 in0.0 mm 0.00 in0.0 mm
07:15 AM 39.4°F4.1°C 37.5°F3.1°C 93% 1.7 mph N2.7 kmh N 2.2 mph3.5 kmh 29.19 in988.5 mb 0.00 in0.0 mm 0.00 in0.0 mm 0.00 in0.0 mm
07:30 AM 39.4°F4.1°C 37.5°F3.1°C 93% 1.9 mph N3.1 kmh N 3.1 mph5.0 kmh 29.18 in988.1 mb 0.00 in0.0 mm 0.00 in0.0 mm 0.00 in0.0 mm
07:45 AM 39.4°F4.1°C 37.8°F3.2°C 94% 1.4 mph N2.3 kmh N 2.2 mph3.5 kmh 29.17 in987.8 mb 0.00 in0.0 mm 0.00 in0.0 mm 0.00 in0.0 mm
08:00 AM 39.4°F4.1°C 37.8°F3.2°C 94% 1.0 mph N1.6 kmh N 1.6 mph2.6 kmh 29.17 in987.8 mb 0.00 in0.0 mm 0.00 in0.0 mm 0.00 in0.0 mm
08:15 AM 39.4°F4.1°C 37.8°F3.2°C 94% 1.7 mph N2.7 kmh N 2.2 mph3.5 kmh 29.17 in987.8 mb 0.00 in0.0 mm 0.00 in0.0 mm 0.00 in0.0 mm
08:30 AM 39.4°F4.1°C 37.8°F3.2°C 94% 1.1 mph N1.8 kmh N 1.6 mph2.6 kmh 29.18 in988.1 mb 0.00 in0.0 mm 0.00 in0.0 mm 0.00 in0.0 mm
08:45 AM 39.4°F4.1°C 37.8°F3.2°C 94% 1.1 mph N1.8 kmh N 3.1 mph5.0 kmh 29.17 in987.8 mb 0.00 in0.0 mm 0.00 in0.0 mm 0.00 in0.0 mm
09:00 AM 39.4°F4.1°C 37.8°F3.2°C 94% 2.2 mph N3.5 kmh N 3.8 mph6.1 kmh 29.17 in987.8 mb 0.00 in0.0 mm 0.00 in0.0 mm 0.00 in0.0 mm
09:15 AM 39.4°F4.1°C 37.8°F3.2°C 94% 3.1 mph N5.0 kmh N 4.5 mph7.2 kmh 29.17 in987.8 mb 0.00 in0.0 mm 0.00 in0.0 mm 0.00 in0.0 mm
09:30 AM 39.2°F4.0°C 37.6°F3.1°C 94% 2.2 mph N3.5 kmh N 3.1 mph5.0 kmh 29.16 in987.5 mb 0.00 in0.0 mm 0.00 in0.0 mm 0.00 in0.0 mm
09:45 AM 39.2°F4.0°C 37.6°F3.1°C 94% 2.8 mph NNE4.5 kmh NNE 3.8 mph6.1 kmh 29.16 in987.5 mb 0.00 in0.0 mm 0.00 in0.0 mm 0.00 in0.0 mm
10:00 AM 39.2°F4.0°C 37.6°F3.1°C 94% 0.7 mph N1.1 kmh N 1.6 mph2.6 kmh 29.16 in987.5 mb 0.00 in0.0 mm 0.00 in0.0 mm 0.00 in0.0 mm
10:15 AM 39.2°F4.0°C 37.6°F3.1°C 94% 1.5 mph N2.4 kmh N 2.2 mph3.5 kmh 29.16 in987.5 mb 0.01 in0.3 mm 0.04 in1.0 mm 0.01 in0.3 mm
10:30 AM 39.4°F4.1°C 37.8°F3.2°C 94% 0.7 mph N1.1 kmh N 1.6 mph2.6 kmh 29.16 in987.5 mb 0.01 in0.3 mm 0.00 in0.0 mm 0.01 in0.3 mm
10:45 AM 39.4°F4.1°C 37.8°F3.2°C 94% 0.4 mph N0.6 kmh N 1.6 mph2.6 kmh 29.15 in987.1 mb 0.01 in0.3 mm 0.00 in0.0 mm 0.01 in0.3 mm
11:00 AM 39.4°F4.1°C 37.8°F3.2°C 94% 1.4 mph N2.3 kmh N 2.2 mph3.5 kmh 29.15 in987.1 mb 0.01 in0.3 mm 0.00 in0.0 mm 0.01 in0.3 mm
11:15 AM 39.4°F4.1°C 37.8°F3.2°C 94% 1.4 mph N2.3 kmh N 2.2 mph3.5 kmh 29.14 in986.8 mb 0.00 in0.0 mm 0.00 in0.0 mm 0.01 in0.3 mm
11:30 AM 39.4°F4.1°C 37.8°F3.2°C 94% 2.0 mph N3.2 kmh N 3.1 mph5.0 kmh 29.14 in986.8 mb 0.00 in0.0 mm 0.00 in0.0 mm 0.01 in0.3 mm
11:45 AM 39.4°F4.1°C 37.8°F3.2°C 94% 2.2 mph N3.5 kmh N 3.8 mph6.1 kmh 29.13 in986.5 mb 0.00 in0.0 mm 0.00 in0.0 mm 0.01 in0.3 mm
12:15 PM 40.3°F4.6°C 39.0°F3.9°C 95% 1.5 mph N2.4 kmh N 2.2 mph3.5 kmh 29.11 in985.8 mb 0.00 in0.0 mm 0.00 in0.0 mm 0.01 in0.3 mm
12:30 PM 40.3°F4.6°C 39.0°F3.9°C 95% 2.2 mph N3.5 kmh N 3.8 mph6.1 kmh 29.10 in985.4 mb 0.00 in0.0 mm 0.00 in0.0 mm 0.01 in0.3 mm
01:00 PM 40.5°F4.7°C 39.1°F3.9°C 95% 1.8 mph N2.9 kmh N 2.2 mph3.5 kmh 29.10 in985.4 mb 0.01 in0.3 mm 0.02 in0.5 mm 0.02 in0.5 mm
01:15 PM 40.3°F4.6°C 39.0°F3.9°C 95% 2.3 mph N3.7 kmh N 3.1 mph5.0 kmh 29.10 in985.4 mb 0.01 in0.3 mm 0.00 in0.0 mm 0.02 in0.5 mm
01:30 PM 40.3°F4.6°C 39.0°F3.9°C 95% 2.0 mph N3.2 kmh N 3.8 mph6.1 kmh 29.10 in985.4 mb 0.01 in0.3 mm 0.00 in0.0 mm 0.02 in0.5 mm
01:45 PM 40.5°F4.7°C 39.1°F3.9°C 95% 1.5 mph N2.4 kmh N 3.1 mph5.0 kmh 29.10 in985.4 mb 0.00 in0.0 mm 0.00 in0.0 mm 0.02 in0.5 mm
02:00 PM 40.5°F4.7°C 39.1°F3.9°C 95% 1.8 mph N2.9 kmh N 2.2 mph3.5 kmh 29.10 in985.4 mb 0.00 in0.0 mm 0.00 in0.0 mm 0.02 in0.5 mm
02:15 PM 40.6°F4.8°C 39.3°F4.1°C 95% 0.9 mph NE1.4 kmh NE 2.2 mph3.5 kmh 29.10 in985.4 mb 0.00 in0.0 mm 0.00 in0.0 mm 0.02 in0.5 mm
02:45 PM 40.6°F4.8°C 39.3°F4.1°C 95% 2.4 mph N3.9 kmh N 3.8 mph6.1 kmh 29.10 in985.4 mb 0.01 in0.3 mm 0.02 in0.5 mm 0.04 in1.0 mm
03:00 PM 40.6°F4.8°C 39.3°F4.1°C 95% 1.2 mph N1.9 kmh N 1.6 mph2.6 kmh 29.10 in985.4 mb 0.01 in0.3 mm 0.00 in0.0 mm 0.04 in1.0 mm
03:15 PM 40.6°F4.8°C 39.3°F4.1°C 95% 1.4 mph N2.3 kmh N 2.2 mph3.5 kmh 29.10 in985.4 mb 0.02 in0.5 mm 0.04 in1.0 mm 0.05 in1.3 mm
03:30 PM 40.6°F4.8°C 39.3°F4.1°C 95% 0.7 mph NNE1.1 kmh NNE 3.1 mph5.0 kmh 29.10 in985.4 mb 0.01 in0.3 mm 0.00 in0.0 mm 0.05 in1.3 mm
03:45 PM 40.5°F4.7°C 39.1°F3.9°C 95% 0.4 mph N0.6 kmh N 1.6 mph2.6 kmh 29.11 in985.8 mb 0.01 in0.3 mm 0.00 in0.0 mm 0.05 in1.3 mm
04:15 PM 40.3°F4.6°C 39.0°F3.9°C 95% 0.8 mph NNE1.3 kmh NNE 1.6 mph2.6 kmh 29.12 in986.1 mb 0.00 in0.0 mm 0.00 in0.0 mm 0.05 in1.3 mm
04:30 PM 40.3°F4.6°C 39.0°F3.9°C 95% 0.2 mph N0.3 kmh N 1.6 mph2.6 kmh 29.13 in986.5 mb 0.00 in0.0 mm 0.00 in0.0 mm 0.05 in1.3 mm
04:45 PM 40.1°F4.5°C 38.8°F3.8°C 95% 0.1 mph NE0.2 kmh NE 0.7 mph1.1 kmh 29.13 in986.5 mb 0.01 in0.3 mm 0.04 in1.0 mm 0.06 in1.5 mm
05:00 PM 40.1°F4.5°C 38.8°F3.8°C 95% 0.1 mph NE0.2 kmh NE 0.7 mph1.1 kmh 29.14 in986.8 mb 0.01 in0.3 mm 0.00 in0.0 mm 0.06 in1.5 mm
05:15 PM 39.4°F4.1°C 37.8°F3.2°C 94% 0.7 mph NE1.1 kmh NE 1.6 mph2.6 kmh 29.14 in986.8 mb 0.02 in0.5 mm 0.04 in1.0 mm 0.07 in1.8 mm
05:30 PM 39.4°F4.1°C 37.8°F3.2°C 94% Calm Calm -- 29.14 in986.8 mb 0.02 in0.5 mm 0.00 in0.0 mm 0.07 in1.8 mm
05:45 PM 39.4°F4.1°C 37.8°F3.2°C 94% Calm Calm -- 29.15 in987.1 mb 0.02 in0.5 mm 0.00 in0.0 mm 0.08 in2.0 mm
06:15 PM 39.2°F4.0°C 37.6°F3.1°C 94% Calm Calm -- 29.16 in987.5 mb 0.02 in0.5 mm 0.00 in0.0 mm 0.09 in2.3 mm
06:30 PM 39.2°F4.0°C 37.6°F3.1°C 94% Calm Calm -- 29.16 in987.5 mb 0.02 in0.5 mm 0.00 in0.0 mm 0.09 in2.3 mm
06:45 PM 39.0°F3.9°C 37.7°F3.2°C 95% 0.1 mph E0.2 kmh E 0.7 mph1.1 kmh 29.16 in987.5 mb 0.02 in0.5 mm 0.00 in0.0 mm 0.11 in2.8 mm
07:00 PM 39.0°F3.9°C 37.7°F3.2°C 95% Calm Calm -- 29.17 in987.8 mb 0.02 in0.5 mm 0.00 in0.0 mm 0.11 in2.8 mm
07:15 PM 39.0°F3.9°C 37.7°F3.2°C 95% 0.5 mph SE0.8 kmh SE 1.6 mph2.6 kmh 29.17 in987.8 mb 0.01 in0.3 mm 0.00 in0.0 mm 0.11 in2.8 mm
07:30 PM 38.8°F3.8°C 37.5°F3.1°C 95% Calm Calm -- 29.17 in987.8 mb 0.02 in0.5 mm 0.04 in1.0 mm 0.12 in3.0 mm
07:45 PM 38.7°F3.7°C 37.4°F3.0°C 95% Calm Calm -- 29.17 in987.8 mb 0.01 in0.3 mm 0.00 in0.0 mm 0.12 in3.0 mm
08:00 PM 38.7°F3.7°C 37.4°F3.0°C 95% Calm Calm -- 29.17 in987.8 mb 0.02 in0.5 mm 0.01 in0.3 mm 0.13 in3.3 mm
08:15 PM 38.3°F3.5°C 37.0°F2.8°C 95% Calm Calm -- 29.18 in988.1 mb 0.02 in0.5 mm 0.00 in0.0 mm 0.13 in3.3 mm
08:30 PM 38.1°F3.4°C 36.8°F2.7°C 95% 0.2 mph SW0.3 kmh SW 0.7 mph1.1 kmh 29.18 in988.1 mb 0.01 in0.3 mm 0.00 in0.0 mm 0.13 in3.3 mm
08:45 PM 37.8°F3.2°C 36.5°F2.5°C 95% 0.4 mph SW0.6 kmh SW 0.7 mph1.1 kmh 29.18 in988.1 mb 0.02 in0.5 mm 0.04 in1.0 mm 0.14 in3.6 mm
09:00 PM 37.8°F3.2°C 36.5°F2.5°C 95% Calm Calm -- 29.18 in988.1 mb 0.01 in0.3 mm 0.00 in0.0 mm 0.14 in3.6 mm
09:15 PM 37.4°F3.0°C 36.1°F2.3°C 95% 0.2 mph SW0.3 kmh SW 0.7 mph1.1 kmh 29.18 in988.1 mb 0.01 in0.3 mm 0.00 in0.0 mm 0.14 in3.6 mm
09:30 PM 37.2°F2.9°C 34.8°F1.6°C 91% Calm Calm -- 29.18 in988.1 mb 0.02 in0.5 mm 0.04 in1.0 mm 0.15 in3.8 mm
09:45 PM 37.2°F2.9°C 34.8°F1.6°C 91% Calm Calm -- 29.18 in988.1 mb 0.01 in0.3 mm 0.00 in0.0 mm 0.15 in3.8 mm
10:00 PM 37.0°F2.8°C 34.7°F1.5°C 91% Calm Calm -- 29.18 in988.1 mb 0.02 in0.5 mm 0.01 in0.3 mm 0.17 in4.3 mm
10:15 PM 36.9°F2.7°C 34.5°F1.4°C 91% Calm Calm -- 29.19 in988.5 mb 0.04 in1.0 mm 0.08 in2.0 mm 0.18 in4.6 mm
10:30 PM 36.9°F2.7°C 34.5°F1.4°C 91% 0.7 mph N1.1 kmh N 1.6 mph2.6 kmh 29.19 in988.5 mb 0.02 in0.5 mm 0.00 in0.0 mm 0.18 in4.6 mm
10:45 PM 36.9°F2.7°C 34.5°F1.4°C 91% Calm Calm -- 29.20 in988.8 mb 0.02 in0.5 mm 0.00 in0.0 mm 0.18 in4.6 mm
11:00 PM 36.7°F2.6°C 34.3°F1.3°C 91% Calm Calm -- 29.19 in988.5 mb 0.02 in0.5 mm 0.00 in0.0 mm 0.19 in4.8 mm
11:30 PM 36.5°F2.5°C 34.1°F1.2°C 91% Calm Calm -- 29.19 in988.5 mb 0.01 in0.3 mm 0.00 in0.0 mm 0.19 in4.8 mm
11:45 PM 36.3°F2.4°C 34.0°F1.1°C 91% Calm Calm -- 29.20 in988.8 mb 0.01 in0.3 mm 0.00 in0.0 mm 0.19 in4.8 mm